NFC6326 EDDH-BIKF
Flight info
| Callsign | NFC6326 |
|---|---|
| Flight time | 2h 27m |
| Altitude | 34000 |
| Route | ELSOB3G ELSOB Y348 OMWEG DCT BADOS DCT IPSUB DCT VAXIT DCT ARTEX DCT LAMRO DCT NALAN/M082F340 DCT ALDAN DCT ASRUN ASRUN4N |
| Aircraft | MD11/H-SDE1E2E3FGHIJ2J3J4J5M1RWXY/LB1D1 |
Departure
| Time | 2026-04-22 14:22 |
|---|---|
| Airport | Hamburg Helmut Schmidt Airport (EDDH) |
Arrival
| Time | 2026-04-22 16:49 |
|---|---|
| Airport | Keflavik International Airport (BIKF) |
| Time | Latitude | Longitude | Altitude | Speed | Heading |
|---|---|---|---|---|---|
| 2026-04-22 14:00 | 53.62694 | 9.99214 | 66 ft | 0 kts | 63° |
| 2026-04-22 14:14 | 53.62688 | 9.99194 | 66 ft | 2 kts | 63° |
| 2026-04-22 14:14 | 53.62681 | 9.99171 | 66 ft | 2 kts | 63° |
| 2026-04-22 14:15 | 53.62674 | 9.99149 | 66 ft | 2 kts | 63° |
| 2026-04-22 14:15 | 53.62668 | 9.99126 | 66 ft | 2 kts | 81° |
| 2026-04-22 14:15 | 53.62669 | 9.99101 | 66 ft | 2 kts | 106° |
| 2026-04-22 14:15 | 53.62675 | 9.99079 | 66 ft | 2 kts | 129° |
| 2026-04-22 14:16 | 53.62686 | 9.99063 | 66 ft | 1 kts | 151° |
| 2026-04-22 14:16 | 53.62690 | 9.99059 | 66 ft | 0 kts | 154° |
| 2026-04-22 14:18 | 53.62689 | 9.99059 | 66 ft | 0 kts | 153° |
| 2026-04-22 14:18 | 53.62688 | 9.99060 | 66 ft | 0 kts | 153° |
| 2026-04-22 14:18 | 53.62675 | 9.99071 | 66 ft | 5 kts | 155° |
| 2026-04-22 14:18 | 53.62636 | 9.99102 | 66 ft | 6 kts | 155° |
| 2026-04-22 14:19 | 53.62590 | 9.99142 | 66 ft | 7 kts | 140° |
| 2026-04-22 14:19 | 53.62579 | 9.99233 | 66 ft | 8 kts | 80° |
| 2026-04-22 14:19 | 53.62591 | 9.99342 | 66 ft | 10 kts | 80° |
| 2026-04-22 14:19 | 53.62604 | 9.99468 | 66 ft | 11 kts | 79° |
| 2026-04-22 14:20 | 53.62636 | 9.99746 | 66 ft | 12 kts | 78° |
| 2026-04-22 14:20 | 53.62666 | 9.99881 | 66 ft | 9 kts | 45° |
| 2026-04-22 14:20 | 53.62708 | 9.99879 | 66 ft | 8 kts | 336° |
| 2026-04-22 14:21 | 53.63562 | 9.99138 | 66 ft | 136 kts | 332° |
| 2026-04-22 14:21 | 53.64574 | 9.98267 | 67 ft | 189 kts | 332° |
| 2026-04-22 14:22 | 53.66928 | 9.96223 | 1409 ft | 185 kts | 332° |
| 2026-04-22 14:22 | 53.68033 | 9.95277 | 2107 ft | 179 kts | 333° |
| 2026-04-22 14:22 | 53.70296 | 9.93349 | 2884 ft | 188 kts | 329° |
| 2026-04-22 14:23 | 53.71264 | 9.91895 | 3279 ft | 194 kts | 303° |
| 2026-04-22 14:23 | 53.71704 | 9.89613 | 3375 ft | 220 kts | 270° |
| 2026-04-22 14:23 | 53.71375 | 9.86962 | 3593 ft | 244 kts | 252° |
| 2026-04-22 14:23 | 53.70715 | 9.84165 | 3889 ft | 265 kts | 250° |
| 2026-04-22 14:24 | 53.69991 | 9.81249 | 4453 ft | 278 kts | 250° |
| 2026-04-22 14:24 | 53.69271 | 9.78166 | 5117 ft | 288 kts | 252° |
| 2026-04-22 14:24 | 53.68595 | 9.74983 | 5849 ft | 295 kts | 253° |
| 2026-04-22 14:24 | 53.67930 | 9.71668 | 6648 ft | 300 kts | 254° |
| 2026-04-22 14:25 | 53.67284 | 9.68360 | 7458 ft | 304 kts | 256° |
| 2026-04-22 14:25 | 53.66927 | 9.64880 | 8271 ft | 301 kts | 274° |
| 2026-04-22 14:25 | 53.67307 | 9.61435 | 9063 ft | 298 kts | 298° |
| 2026-04-22 14:25 | 53.68418 | 9.58608 | 9808 ft | 295 kts | 320° |
| 2026-04-22 14:26 | 53.70089 | 9.56693 | 10553 ft | 294 kts | 341° |
| 2026-04-22 14:26 | 53.72107 | 9.55794 | 10891 ft | 312 kts | 354° |
| 2026-04-22 14:26 | 53.74376 | 9.55397 | 11011 ft | 340 kts | 357° |
| 2026-04-22 14:26 | 53.76833 | 9.55070 | 11263 ft | 362 kts | 356° |
| 2026-04-22 14:27 | 53.79346 | 9.54643 | 11952 ft | 371 kts | 355° |
| 2026-04-22 14:27 | 53.81911 | 9.54097 | 12780 ft | 377 kts | 354° |
| 2026-04-22 14:27 | 53.84518 | 9.53487 | 13649 ft | 380 kts | 354° |
| 2026-04-22 14:27 | 53.87158 | 9.52850 | 14490 ft | 384 kts | 354° |
| 2026-04-22 14:28 | 53.89797 | 9.52212 | 15283 ft | 388 kts | 354° |
| 2026-04-22 14:28 | 53.92484 | 9.51574 | 16062 ft | 392 kts | 354° |
| 2026-04-22 14:28 | 53.95178 | 9.50948 | 16808 ft | 397 kts | 355° |
| 2026-04-22 14:28 | 53.97885 | 9.50207 | 17537 ft | 402 kts | 350° |
| 2026-04-22 14:29 | 54.00609 | 9.48922 | 18272 ft | 408 kts | 343° |
| 2026-04-22 14:29 | 54.03231 | 9.47040 | 18992 ft | 415 kts | 336° |
| 2026-04-22 14:29 | 54.05762 | 9.44690 | 19684 ft | 421 kts | 333° |
| 2026-04-22 14:29 | 54.08297 | 9.42120 | 20390 ft | 425 kts | 332° |
| 2026-04-22 14:30 | 54.10802 | 9.39540 | 21088 ft | 429 kts | 333° |
| 2026-04-22 14:30 | 54.13390 | 9.36916 | 21792 ft | 432 kts | 333° |
| 2026-04-22 14:30 | 54.15962 | 9.34358 | 22498 ft | 436 kts | 333° |
| 2026-04-22 14:30 | 54.18614 | 9.31743 | 23191 ft | 440 kts | 333° |
| 2026-04-22 14:31 | 54.21267 | 9.29135 | 23844 ft | 444 kts | 333° |
| 2026-04-22 14:31 | 54.23923 | 9.26522 | 24480 ft | 448 kts | 333° |
| 2026-04-22 14:31 | 54.26637 | 9.23838 | 25058 ft | 453 kts | 333° |
| 2026-04-22 14:31 | 54.29417 | 9.21079 | 25616 ft | 458 kts | 333° |
| 2026-04-22 14:32 | 54.32189 | 9.18332 | 26131 ft | 462 kts | 333° |
| 2026-04-22 14:32 | 54.34914 | 9.15358 | 26628 ft | 469 kts | 328° |
| 2026-04-22 14:32 | 54.37522 | 9.11928 | 27057 ft | 478 kts | 324° |
| 2026-04-22 14:32 | 54.39985 | 9.08063 | 27520 ft | 485 kts | 319° |
| 2026-04-22 14:33 | 54.42319 | 9.03895 | 27946 ft | 492 kts | 317° |
| 2026-04-22 14:33 | 54.44617 | 8.99547 | 28506 ft | 494 kts | 316° |
| 2026-04-22 14:33 | 54.46887 | 8.95167 | 29104 ft | 495 kts | 316° |
| 2026-04-22 14:33 | 54.49175 | 8.90756 | 29657 ft | 495 kts | 316° |
| 2026-04-22 14:34 | 54.51484 | 8.86363 | 30162 ft | 497 kts | 317° |
| 2026-04-22 14:34 | 54.53825 | 8.81979 | 30710 ft | 497 kts | 317° |
| 2026-04-22 14:34 | 54.56132 | 8.77648 | 31177 ft | 498 kts | 317° |
| 2026-04-22 14:34 | 54.58455 | 8.73260 | 31651 ft | 498 kts | 317° |
| 2026-04-22 14:35 | 54.60807 | 8.68821 | 32074 ft | 499 kts | 317° |
| 2026-04-22 14:35 | 54.63139 | 8.64426 | 32506 ft | 499 kts | 317° |
| 2026-04-22 14:35 | 54.65468 | 8.60045 | 32857 ft | 500 kts | 318° |
| 2026-04-22 14:35 | 54.67793 | 8.55677 | 33256 ft | 500 kts | 318° |
| 2026-04-22 14:36 | 54.70138 | 8.51276 | 33615 ft | 501 kts | 318° |
| 2026-04-22 14:36 | 54.72514 | 8.46821 | 33948 ft | 501 kts | 318° |
| 2026-04-22 14:36 | 54.74848 | 8.42442 | 34335 ft | 499 kts | 318° |
| 2026-04-22 14:37 | 54.79535 | 8.33658 | 34367 ft | 497 kts | 317° |
| 2026-04-22 14:37 | 54.84220 | 8.24902 | 34397 ft | 501 kts | 317° |
| 2026-04-22 14:38 | 54.88980 | 8.15997 | 34399 ft | 503 kts | 317° |
| 2026-04-22 14:38 | 54.93718 | 8.07170 | 34387 ft | 504 kts | 318° |
| 2026-04-22 14:39 | 54.98466 | 7.98300 | 34392 ft | 505 kts | 317° |
| 2026-04-22 14:39 | 55.03247 | 7.89311 | 34395 ft | 504 kts | 319° |
| 2026-04-22 14:40 | 55.10477 | 7.76082 | 34421 ft | 505 kts | 318° |
| 2026-04-22 14:40 | 55.15280 | 7.67130 | 34413 ft | 504 kts | 318° |
| 2026-04-22 14:41 | 55.20051 | 7.58230 | 34422 ft | 505 kts | 319° |
| 2026-04-22 14:41 | 55.24869 | 7.49275 | 34412 ft | 506 kts | 319° |
| 2026-04-22 14:42 | 55.29657 | 7.40391 | 34417 ft | 505 kts | 319° |
| 2026-04-22 14:42 | 55.34489 | 7.31440 | 34413 ft | 506 kts | 318° |
| 2026-04-22 14:43 | 55.39337 | 7.22466 | 34414 ft | 508 kts | 319° |
| 2026-04-22 14:43 | 55.44176 | 7.13524 | 34410 ft | 508 kts | 319° |
| 2026-04-22 14:44 | 55.49060 | 7.04527 | 34414 ft | 508 kts | 319° |
| 2026-04-22 14:44 | 55.53925 | 6.95566 | 34413 ft | 509 kts | 319° |
| 2026-04-22 14:45 | 55.58829 | 6.86551 | 34417 ft | 509 kts | 319° |
| 2026-04-22 14:45 | 55.63597 | 6.77333 | 34419 ft | 511 kts | 317° |
| 2026-04-22 14:46 | 55.68353 | 6.67952 | 34426 ft | 513 kts | 317° |
| 2026-04-22 14:46 | 55.73132 | 6.58606 | 34426 ft | 514 kts | 318° |
| 2026-04-22 14:47 | 55.77936 | 6.49260 | 34428 ft | 515 kts | 318° |
| 2026-04-22 14:47 | 55.82762 | 6.39898 | 34432 ft | 517 kts | 318° |
| 2026-04-22 14:48 | 55.87602 | 6.30509 | 34421 ft | 517 kts | 317° |
| 2026-04-22 14:48 | 55.92458 | 6.21098 | 34427 ft | 519 kts | 317° |
| 2026-04-22 14:49 | 55.97368 | 6.11650 | 34435 ft | 521 kts | 317° |
| 2026-04-22 14:49 | 56.02242 | 6.02178 | 34443 ft | 524 kts | 318° |
| 2026-04-22 14:50 | 56.07194 | 5.92648 | 34417 ft | 523 kts | 318° |
| 2026-04-22 14:50 | 56.12159 | 5.83077 | 34413 ft | 524 kts | 318° |
| 2026-04-22 14:51 | 56.17077 | 5.73498 | 34413 ft | 525 kts | 316° |
| 2026-04-22 14:51 | 56.21875 | 5.63723 | 34414 ft | 526 kts | 316° |
| 2026-04-22 14:52 | 56.26698 | 5.53895 | 34409 ft | 526 kts | 316° |
| 2026-04-22 14:52 | 56.31568 | 5.44090 | 34403 ft | 526 kts | 317° |
| 2026-04-22 14:53 | 56.36441 | 5.34274 | 34401 ft | 526 kts | 316° |
| 2026-04-22 14:53 | 56.41312 | 5.24492 | 34402 ft | 527 kts | 316° |
| 2026-04-22 14:54 | 56.46175 | 5.14722 | 34402 ft | 527 kts | 316° |
| 2026-04-22 14:54 | 56.51100 | 5.04859 | 34400 ft | 528 kts | 316° |
| 2026-04-22 14:55 | 56.55693 | 4.94526 | 34417 ft | 531 kts | 308° |
| 2026-04-22 14:55 | 56.59655 | 4.83247 | 34420 ft | 533 kts | 303° |
| 2026-04-22 14:56 | 56.63481 | 4.71678 | 34423 ft | 533 kts | 304° |
| 2026-04-22 14:56 | 56.67373 | 4.60265 | 34426 ft | 532 kts | 305° |
| 2026-04-22 14:57 | 56.71268 | 4.48900 | 34430 ft | 532 kts | 304° |
| 2026-04-22 14:57 | 56.75193 | 4.37435 | 34435 ft | 533 kts | 305° |
| 2026-04-22 14:58 | 56.79138 | 4.25996 | 34426 ft | 532 kts | 304° |
| 2026-04-22 14:58 | 56.83057 | 4.14608 | 34438 ft | 532 kts | 304° |
| 2026-04-22 14:59 | 56.86993 | 4.03264 | 34446 ft | 533 kts | 304° |
| 2026-04-22 14:59 | 56.90934 | 3.91828 | 34462 ft | 535 kts | 304° |
| 2026-04-22 15:00 | 56.94788 | 3.80217 | 34468 ft | 535 kts | 303° |
| 2026-04-22 15:00 | 56.98638 | 3.68600 | 34469 ft | 536 kts | 303° |
| 2026-04-22 15:01 | 57.02664 | 3.57037 | 34473 ft | 535 kts | 308° |
| 2026-04-22 15:01 | 57.07353 | 3.46639 | 34498 ft | 532 kts | 316° |
| 2026-04-22 15:02 | 57.12412 | 3.36619 | 34482 ft | 533 kts | 316° |
| 2026-04-22 15:02 | 57.17383 | 3.26523 | 34465 ft | 534 kts | 314° |
| 2026-04-22 15:03 | 57.22322 | 3.16341 | 34472 ft | 535 kts | 314° |
| 2026-04-22 15:03 | 57.27267 | 3.06170 | 34472 ft | 535 kts | 314° |
| 2026-04-22 15:04 | 57.32228 | 2.96011 | 34471 ft | 535 kts | 314° |
| 2026-04-22 15:04 | 57.37223 | 2.85817 | 34479 ft | 535 kts | 315° |
| 2026-04-22 15:05 | 57.42215 | 2.75651 | 34475 ft | 534 kts | 314° |
| 2026-04-22 15:05 | 57.47210 | 2.65477 | 34479 ft | 534 kts | 315° |
| 2026-04-22 15:06 | 57.52243 | 2.55265 | 34485 ft | 534 kts | 315° |
| 2026-04-22 15:06 | 57.57265 | 2.45093 | 34483 ft | 533 kts | 315° |
| 2026-04-22 15:07 | 57.62287 | 2.34957 | 34484 ft | 533 kts | 314° |
| 2026-04-22 15:07 | 57.67226 | 2.24673 | 34485 ft | 533 kts | 312° |
| 2026-04-22 15:08 | 57.72057 | 2.14140 | 34492 ft | 534 kts | 312° |
| 2026-04-22 15:08 | 57.76911 | 2.03600 | 34487 ft | 534 kts | 312° |
| 2026-04-22 15:09 | 57.81788 | 1.93109 | 34494 ft | 534 kts | 313° |
| 2026-04-22 15:09 | 57.86716 | 1.82545 | 34490 ft | 535 kts | 313° |
| 2026-04-22 15:10 | 57.91608 | 1.72067 | 34490 ft | 535 kts | 313° |
| 2026-04-22 15:10 | 57.96523 | 1.61548 | 34497 ft | 537 kts | 313° |
| 2026-04-22 15:11 | 58.01495 | 1.50930 | 34490 ft | 538 kts | 313° |
| 2026-04-22 15:11 | 58.06437 | 1.40388 | 34491 ft | 538 kts | 313° |
| 2026-04-22 15:12 | 58.11404 | 1.29841 | 34481 ft | 538 kts | 312° |
| 2026-04-22 15:12 | 58.16381 | 1.19264 | 34475 ft | 538 kts | 312° |
| 2026-04-22 15:13 | 58.21303 | 1.08611 | 34489 ft | 539 kts | 310° |
| 2026-04-22 15:13 | 58.26104 | 0.97623 | 34495 ft | 540 kts | 310° |
| 2026-04-22 15:14 | 58.30903 | 0.86611 | 34487 ft | 539 kts | 310° |
| 2026-04-22 15:14 | 58.35705 | 0.75733 | 34546 ft | 538 kts | 311° |
| 2026-04-22 15:15 | 58.40562 | 0.64783 | 34510 ft | 539 kts | 311° |
| 2026-04-22 15:15 | 58.45394 | 0.53874 | 34505 ft | 539 kts | 311° |
| 2026-04-22 15:16 | 58.50233 | 0.42973 | 34503 ft | 538 kts | 311° |
| 2026-04-22 15:16 | 58.55067 | 0.32108 | 34508 ft | 538 kts | 311° |
| 2026-04-22 15:17 | 58.59923 | 0.21218 | 34506 ft | 538 kts | 311° |
| 2026-04-22 15:17 | 58.64789 | 0.10325 | 34513 ft | 538 kts | 311° |
| 2026-04-22 15:18 | 58.69656 | -0.00524 | 34511 ft | 538 kts | 311° |
| 2026-04-22 15:18 | 58.74488 | -0.11474 | 34507 ft | 539 kts | 310° |
| 2026-04-22 15:19 | 58.79167 | -0.22730 | 34511 ft | 538 kts | 308° |
| 2026-04-22 15:19 | 58.83834 | -0.34038 | 34512 ft | 539 kts | 309° |
| 2026-04-22 15:20 | 58.88525 | -0.45265 | 34515 ft | 539 kts | 310° |
| 2026-04-22 15:20 | 58.93241 | -0.56487 | 34522 ft | 538 kts | 310° |
| 2026-04-22 15:21 | 58.97969 | -0.67721 | 34523 ft | 538 kts | 309° |
| 2026-04-22 15:21 | 59.02715 | -0.78993 | 34517 ft | 537 kts | 309° |
| 2026-04-22 15:22 | 59.07430 | -0.90159 | 34522 ft | 538 kts | 309° |
| 2026-04-22 15:22 | 59.12137 | -1.01299 | 34512 ft | 537 kts | 310° |
| 2026-04-22 15:23 | 59.16876 | -1.12474 | 34510 ft | 536 kts | 310° |
| 2026-04-22 15:23 | 59.21649 | -1.23689 | 34519 ft | 537 kts | 310° |
| 2026-04-22 15:24 | 59.26395 | -1.34951 | 34527 ft | 538 kts | 309° |
| 2026-04-22 15:24 | 59.30955 | -1.46482 | 34529 ft | 539 kts | 308° |
| 2026-04-22 15:25 | 59.35521 | -1.58169 | 34517 ft | 539 kts | 308° |
| 2026-04-22 15:25 | 59.40098 | -1.69763 | 34513 ft | 539 kts | 308° |
| 2026-04-22 15:26 | 59.44680 | -1.81275 | 34514 ft | 539 kts | 307° |
| 2026-04-22 15:26 | 59.49297 | -1.92868 | 34520 ft | 540 kts | 308° |
| 2026-04-22 15:27 | 59.53901 | -2.04407 | 34504 ft | 539 kts | 308° |
| 2026-04-22 15:27 | 59.58509 | -2.15948 | 34532 ft | 538 kts | 308° |
| 2026-04-22 15:28 | 59.63151 | -2.27532 | 34516 ft | 539 kts | 308° |
| 2026-04-22 15:28 | 59.67807 | -2.39135 | 34521 ft | 538 kts | 309° |
| 2026-04-22 15:29 | 59.72479 | -2.50723 | 34518 ft | 538 kts | 309° |
| 2026-04-22 15:30 | 59.79388 | -2.68199 | 34506 ft | 537 kts | 306° |
| 2026-04-22 15:30 | 59.83814 | -2.80182 | 34507 ft | 537 kts | 306° |
| 2026-04-22 15:31 | 59.88216 | -2.92077 | 34496 ft | 537 kts | 306° |
| 2026-04-22 15:31 | 59.92674 | -3.03983 | 34507 ft | 537 kts | 306° |
| 2026-04-22 15:32 | 59.97160 | -3.15898 | 34511 ft | 536 kts | 307° |
| 2026-04-22 15:32 | 60.01631 | -3.27768 | 34520 ft | 536 kts | 307° |
| 2026-04-22 15:33 | 60.06094 | -3.39599 | 34526 ft | 536 kts | 307° |
| 2026-04-22 15:33 | 60.10600 | -3.51508 | 34528 ft | 536 kts | 307° |
| 2026-04-22 15:34 | 60.15102 | -3.63387 | 34528 ft | 536 kts | 307° |
| 2026-04-22 15:34 | 60.19604 | -3.75223 | 34520 ft | 535 kts | 307° |
| 2026-04-22 15:35 | 60.24115 | -3.87039 | 34521 ft | 536 kts | 307° |
| 2026-04-22 15:35 | 60.28575 | -3.98938 | 34517 ft | 535 kts | 305° |
| 2026-04-22 15:36 | 60.32847 | -4.11165 | 34524 ft | 535 kts | 304° |
| 2026-04-22 15:36 | 60.37107 | -4.23396 | 34533 ft | 534 kts | 305° |
| 2026-04-22 15:37 | 60.41429 | -4.35654 | 34526 ft | 534 kts | 306° |
| 2026-04-22 15:37 | 60.45741 | -4.47809 | 34534 ft | 535 kts | 306° |
| 2026-04-22 15:38 | 60.50074 | -4.59990 | 34529 ft | 535 kts | 306° |
| 2026-04-22 15:38 | 60.56582 | -4.78261 | 34524 ft | 534 kts | 305° |
| 2026-04-22 15:39 | 60.60923 | -4.90417 | 34517 ft | 534 kts | 305° |
| 2026-04-22 15:39 | 60.65286 | -5.02605 | 34531 ft | 534 kts | 306° |
| 2026-04-22 15:40 | 60.69638 | -5.14697 | 34527 ft | 534 kts | 306° |
| 2026-04-22 15:40 | 60.74025 | -5.26870 | 34534 ft | 533 kts | 306° |
| 2026-04-22 15:41 | 60.78334 | -5.39201 | 34547 ft | 533 kts | 304° |
| 2026-04-22 15:41 | 60.82517 | -5.51702 | 34535 ft | 533 kts | 304° |
| 2026-04-22 15:42 | 60.86733 | -5.64123 | 34547 ft | 533 kts | 306° |
| 2026-04-22 15:42 | 60.90981 | -5.76527 | 34548 ft | 532 kts | 304° |
| 2026-04-22 15:43 | 60.95234 | -5.88971 | 34534 ft | 533 kts | 305° |
| 2026-04-22 15:43 | 60.99598 | -6.01163 | 34517 ft | 533 kts | 306° |
| 2026-04-22 15:44 | 61.03249 | -6.14312 | 34526 ft | 532 kts | 292° |
| 2026-04-22 15:44 | 61.06004 | -6.28476 | 34516 ft | 532 kts | 290° |
| 2026-04-22 15:45 | 61.08699 | -6.42660 | 34566 ft | 533 kts | 291° |
| 2026-04-22 15:45 | 61.11502 | -6.56700 | 34537 ft | 531 kts | 292° |
| 2026-04-22 15:46 | 61.14370 | -6.70792 | 34526 ft | 531 kts | 291° |
| 2026-04-22 15:46 | 61.17215 | -6.84777 | 34515 ft | 531 kts | 292° |
| 2026-04-22 15:47 | 61.20082 | -6.98830 | 34515 ft | 531 kts | 292° |
| 2026-04-22 15:47 | 61.22952 | -7.12850 | 34526 ft | 531 kts | 292° |
| 2026-04-22 15:48 | 61.25848 | -7.26917 | 34526 ft | 531 kts | 293° |
| 2026-04-22 15:48 | 61.28785 | -7.41106 | 34473 ft | 531 kts | 293° |
| 2026-04-22 15:49 | 61.31718 | -7.55181 | 34556 ft | 531 kts | 294° |
| 2026-04-22 15:49 | 61.34695 | -7.69372 | 34562 ft | 531 kts | 293° |
| 2026-04-22 15:50 | 61.37454 | -7.83592 | 34526 ft | 531 kts | 290° |
| 2026-04-22 15:50 | 61.40038 | -7.98000 | 34510 ft | 531 kts | 290° |
| 2026-04-22 15:51 | 61.42650 | -8.12338 | 34533 ft | 530 kts | 291° |
| 2026-04-22 15:51 | 61.45312 | -8.26666 | 34602 ft | 531 kts | 291° |
| 2026-04-22 15:52 | 61.48022 | -8.41126 | 34570 ft | 530 kts | 291° |
| 2026-04-22 15:52 | 61.50726 | -8.55511 | 34571 ft | 530 kts | 292° |
| 2026-04-22 15:53 | 61.53443 | -8.69897 | 34558 ft | 530 kts | 291° |
| 2026-04-22 15:53 | 61.56181 | -8.84322 | 34554 ft | 530 kts | 291° |
| 2026-04-22 15:54 | 61.58927 | -8.98723 | 34555 ft | 529 kts | 292° |
| 2026-04-22 15:54 | 61.61697 | -9.13131 | 34567 ft | 530 kts | 292° |
| 2026-04-22 15:55 | 61.64482 | -9.27515 | 34547 ft | 530 kts | 293° |
| 2026-04-22 15:55 | 61.67176 | -9.42015 | 34557 ft | 530 kts | 290° |
| 2026-04-22 15:56 | 61.69600 | -9.56683 | 34544 ft | 531 kts | 289° |
| 2026-04-22 15:56 | 61.72054 | -9.71262 | 34533 ft | 531 kts | 290° |
| 2026-04-22 15:57 | 61.74538 | -9.85999 | 34543 ft | 531 kts | 290° |
| 2026-04-22 15:57 | 61.77023 | -10.00626 | 34516 ft | 532 kts | 290° |
| 2026-04-22 15:58 | 61.79533 | -10.15232 | 34528 ft | 532 kts | 291° |
| 2026-04-22 15:58 | 61.82079 | -10.29908 | 34556 ft | 531 kts | 291° |
| 2026-04-22 15:59 | 61.84640 | -10.44610 | 34554 ft | 531 kts | 291° |
| 2026-04-22 15:59 | 61.87198 | -10.59222 | 34542 ft | 531 kts | 291° |
| 2026-04-22 16:00 | 61.89779 | -10.73859 | 34525 ft | 531 kts | 291° |
| 2026-04-22 16:00 | 61.92383 | -10.88492 | 34548 ft | 530 kts | 291° |
| 2026-04-22 16:01 | 61.94958 | -11.03120 | 34526 ft | 530 kts | 289° |
| 2026-04-22 16:01 | 61.97247 | -11.18025 | 34533 ft | 530 kts | 288° |
| 2026-04-22 16:02 | 61.99463 | -11.32877 | 34555 ft | 530 kts | 289° |
| 2026-04-22 16:02 | 62.01740 | -11.47716 | 34540 ft | 528 kts | 289° |
| 2026-04-22 16:03 | 62.04046 | -11.62480 | 34544 ft | 528 kts | 290° |
| 2026-04-22 16:03 | 62.06383 | -11.77332 | 34574 ft | 528 kts | 289° |
| 2026-04-22 16:04 | 62.08721 | -11.92160 | 34554 ft | 528 kts | 289° |
| 2026-04-22 16:04 | 62.11075 | -12.06997 | 34528 ft | 528 kts | 290° |
| 2026-04-22 16:05 | 62.13434 | -12.21760 | 34549 ft | 528 kts | 290° |
| 2026-04-22 16:05 | 62.15827 | -12.36652 | 34539 ft | 528 kts | 290° |
| 2026-04-22 16:06 | 62.18234 | -12.51467 | 34537 ft | 529 kts | 291° |
| 2026-04-22 16:06 | 62.20660 | -12.66312 | 34524 ft | 528 kts | 290° |
| 2026-04-22 16:07 | 62.22860 | -12.81354 | 34521 ft | 529 kts | 286° |
| 2026-04-22 16:07 | 62.24889 | -12.96486 | 34531 ft | 530 kts | 287° |
| 2026-04-22 16:08 | 62.26955 | -13.11542 | 34523 ft | 530 kts | 287° |
| 2026-04-22 16:08 | 62.29094 | -13.26742 | 34528 ft | 529 kts | 288° |
| 2026-04-22 16:09 | 62.31258 | -13.41962 | 34529 ft | 530 kts | 288° |
| 2026-04-22 16:09 | 62.33409 | -13.57028 | 34542 ft | 529 kts | 288° |
| 2026-04-22 16:10 | 62.35564 | -13.72026 | 34535 ft | 528 kts | 288° |
| 2026-04-22 16:10 | 62.37741 | -13.87085 | 34513 ft | 529 kts | 288° |
| 2026-04-22 16:11 | 62.39932 | -14.02118 | 34522 ft | 528 kts | 288° |
| 2026-04-22 16:11 | 62.42147 | -14.17198 | 34535 ft | 528 kts | 289° |
| 2026-04-22 16:12 | 62.44380 | -14.32200 | 34522 ft | 528 kts | 289° |
| 2026-04-22 16:12 | 62.46520 | -14.47414 | 34530 ft | 529 kts | 286° |
| 2026-04-22 16:13 | 62.48365 | -14.62711 | 34519 ft | 529 kts | 285° |
| 2026-04-22 16:13 | 62.50229 | -14.78102 | 34517 ft | 529 kts | 285° |
| 2026-04-22 16:14 | 62.52151 | -14.93431 | 34516 ft | 529 kts | 286° |
| 2026-04-22 16:14 | 62.54101 | -15.08736 | 34518 ft | 530 kts | 286° |
| 2026-04-22 16:15 | 62.56056 | -15.24015 | 34504 ft | 529 kts | 286° |
| 2026-04-22 16:15 | 62.58034 | -15.39381 | 34515 ft | 529 kts | 287° |
| 2026-04-22 16:16 | 62.60033 | -15.54779 | 34497 ft | 528 kts | 287° |
| 2026-04-22 16:16 | 62.62029 | -15.70017 | 34504 ft | 528 kts | 286° |
| 2026-04-22 16:17 | 62.64041 | -15.85273 | 34491 ft | 527 kts | 287° |
| 2026-04-22 16:17 | 62.66091 | -16.00608 | 34492 ft | 527 kts | 287° |
| 2026-04-22 16:18 | 62.68110 | -16.15817 | 34479 ft | 527 kts | 285° |
| 2026-04-22 16:18 | 62.69823 | -16.31293 | 34477 ft | 527 kts | 283° |
| 2026-04-22 16:19 | 62.71464 | -16.46815 | 34470 ft | 526 kts | 284° |
| 2026-04-22 16:19 | 62.73152 | -16.62207 | 34462 ft | 526 kts | 284° |
| 2026-04-22 16:20 | 62.74886 | -16.77607 | 34462 ft | 525 kts | 284° |
| 2026-04-22 16:20 | 62.76630 | -16.92979 | 34459 ft | 525 kts | 284° |
| 2026-04-22 16:21 | 62.78394 | -17.08403 | 34471 ft | 525 kts | 284° |
| 2026-04-22 16:21 | 62.80160 | -17.23729 | 34457 ft | 524 kts | 285° |
| 2026-04-22 16:22 | 62.82844 | -17.46782 | 34459 ft | 524 kts | 285° |
| 2026-04-22 16:23 | 62.85580 | -17.69907 | 34451 ft | 524 kts | 285° |
| 2026-04-22 16:23 | 62.87434 | -17.85328 | 34448 ft | 523 kts | 285° |
| 2026-04-22 16:24 | 62.89893 | -18.08513 | 34435 ft | 523 kts | 282° |
| 2026-04-22 16:25 | 62.91451 | -18.24118 | 34439 ft | 523 kts | 283° |
| 2026-04-22 16:25 | 62.93894 | -18.47286 | 34437 ft | 522 kts | 283° |
| 2026-04-22 16:26 | 62.95539 | -18.62843 | 34433 ft | 522 kts | 284° |
| 2026-04-22 16:26 | 62.96464 | -18.70478 | 34330 ft | 522 kts | 289° |
| 2026-04-22 16:26 | 62.97840 | -18.77867 | 33655 ft | 522 kts | 299° |
| 2026-04-22 16:27 | 62.99706 | -18.84609 | 32989 ft | 517 kts | 309° |
| 2026-04-22 16:27 | 63.01953 | -18.90689 | 32338 ft | 512 kts | 313° |
| 2026-04-22 16:27 | 63.04277 | -18.96658 | 31641 ft | 513 kts | 312° |
| 2026-04-22 16:27 | 63.06488 | -19.02797 | 30866 ft | 519 kts | 309° |
| 2026-04-22 16:28 | 63.08639 | -19.09287 | 29946 ft | 525 kts | 308° |
| 2026-04-22 16:28 | 63.10722 | -19.15903 | 28915 ft | 528 kts | 307° |
| 2026-04-22 16:28 | 63.12775 | -19.22554 | 27940 ft | 527 kts | 306° |
| 2026-04-22 16:28 | 63.14803 | -19.29144 | 27123 ft | 523 kts | 307° |
| 2026-04-22 16:29 | 63.16854 | -19.35756 | 26032 ft | 520 kts | 307° |
| 2026-04-22 16:29 | 63.18889 | -19.42254 | 25090 ft | 511 kts | 307° |
| 2026-04-22 16:29 | 63.20881 | -19.48576 | 24249 ft | 502 kts | 307° |
| 2026-04-22 16:29 | 63.22857 | -19.54819 | 23403 ft | 493 kts | 307° |
| 2026-04-22 16:30 | 63.24159 | -19.58927 | 22815 ft | 488 kts | 308° |
| 2026-04-22 16:30 | 63.26728 | -19.67017 | 21654 ft | 477 kts | 307° |
| 2026-04-22 16:30 | 63.28610 | -19.72938 | 20808 ft | 469 kts | 307° |
| 2026-04-22 16:30 | 63.30465 | -19.78775 | 20023 ft | 461 kts | 307° |
| 2026-04-22 16:31 | 63.32301 | -19.84543 | 19254 ft | 454 kts | 307° |
| 2026-04-22 16:31 | 63.34110 | -19.90225 | 18527 ft | 448 kts | 307° |
| 2026-04-22 16:31 | 63.35889 | -19.95807 | 17788 ft | 443 kts | 307° |
| 2026-04-22 16:31 | 63.37652 | -20.01331 | 17072 ft | 437 kts | 307° |
| 2026-04-22 16:32 | 63.39401 | -20.06804 | 16397 ft | 432 kts | 307° |
| 2026-04-22 16:32 | 63.41140 | -20.12241 | 15728 ft | 427 kts | 307° |
| 2026-04-22 16:32 | 63.42842 | -20.17560 | 15200 ft | 421 kts | 307° |
| 2026-04-22 16:32 | 63.44531 | -20.22837 | 15179 ft | 421 kts | 307° |
| 2026-04-22 16:33 | 63.46245 | -20.28174 | 15187 ft | 425 kts | 307° |
| 2026-04-22 16:33 | 63.47974 | -20.33564 | 15074 ft | 426 kts | 307° |
| 2026-04-22 16:33 | 63.49681 | -20.38895 | 14967 ft | 423 kts | 307° |
| 2026-04-22 16:33 | 63.51347 | -20.44268 | 14863 ft | 421 kts | 306° |
| 2026-04-22 16:34 | 63.52989 | -20.49701 | 14751 ft | 419 kts | 305° |
| 2026-04-22 16:34 | 63.54559 | -20.55147 | 14559 ft | 420 kts | 302° |
| 2026-04-22 16:34 | 63.55914 | -20.60908 | 14149 ft | 419 kts | 295° |
| 2026-04-22 16:34 | 63.56910 | -20.66930 | 13683 ft | 415 kts | 287° |
| 2026-04-22 16:35 | 63.57692 | -20.73204 | 13216 ft | 410 kts | 285° |
| 2026-04-22 16:35 | 63.58385 | -20.79357 | 12777 ft | 406 kts | 284° |
| 2026-04-22 16:35 | 63.59066 | -20.85454 | 12443 ft | 406 kts | 285° |
| 2026-04-22 16:35 | 63.59780 | -20.91581 | 12079 ft | 401 kts | 285° |
| 2026-04-22 16:36 | 63.60495 | -20.97481 | 11730 ft | 393 kts | 286° |
| 2026-04-22 16:36 | 63.61222 | -21.03394 | 11405 ft | 385 kts | 286° |
| 2026-04-22 16:36 | 63.61927 | -21.09094 | 11140 ft | 376 kts | 286° |
| 2026-04-22 16:36 | 63.62615 | -21.14657 | 10823 ft | 368 kts | 286° |
| 2026-04-22 16:37 | 63.63287 | -21.20157 | 10512 ft | 361 kts | 285° |
| 2026-04-22 16:37 | 63.63909 | -21.25511 | 10472 ft | 346 kts | 285° |
| 2026-04-22 16:37 | 63.64494 | -21.30639 | 10459 ft | 331 kts | 285° |
| 2026-04-22 16:37 | 63.65064 | -21.35541 | 10467 ft | 317 kts | 286° |
| 2026-04-22 16:38 | 63.65620 | -21.40218 | 10473 ft | 306 kts | 286° |
| 2026-04-22 16:38 | 63.66163 | -21.44755 | 10473 ft | 299 kts | 286° |
| 2026-04-22 16:38 | 63.66698 | -21.49277 | 10473 ft | 292 kts | 286° |
| 2026-04-22 16:38 | 63.67205 | -21.53584 | 10484 ft | 285 kts | 286° |
| 2026-04-22 16:39 | 63.67709 | -21.57857 | 10486 ft | 281 kts | 286° |
| 2026-04-22 16:39 | 63.68195 | -21.62113 | 10497 ft | 279 kts | 286° |
| 2026-04-22 16:39 | 63.68675 | -21.66392 | 10507 ft | 281 kts | 285° |
| 2026-04-22 16:39 | 63.69149 | -21.70618 | 10511 ft | 282 kts | 285° |
| 2026-04-22 16:40 | 63.69634 | -21.74940 | 10497 ft | 282 kts | 285° |
| 2026-04-22 16:40 | 63.70115 | -21.79207 | 10509 ft | 282 kts | 285° |
| 2026-04-22 16:40 | 63.71073 | -21.87665 | 9824 ft | 280 kts | 285° |
| 2026-04-22 16:41 | 63.71555 | -21.91872 | 9494 ft | 277 kts | 286° |
| 2026-04-22 16:41 | 63.72036 | -21.96060 | 9145 ft | 275 kts | 286° |
| 2026-04-22 16:41 | 63.72515 | -22.00219 | 8797 ft | 273 kts | 286° |
| 2026-04-22 16:41 | 63.72993 | -22.04367 | 8301 ft | 278 kts | 286° |
| 2026-04-22 16:42 | 63.73477 | -22.08555 | 7901 ft | 279 kts | 286° |
| 2026-04-22 16:42 | 63.73956 | -22.12718 | 7672 ft | 273 kts | 286° |
| 2026-04-22 16:42 | 63.74416 | -22.16881 | 7272 ft | 272 kts | 285° |
| 2026-04-22 16:42 | 63.74865 | -22.21015 | 6866 ft | 271 kts | 286° |
| 2026-04-22 16:43 | 63.75308 | -22.25077 | 6467 ft | 269 kts | 286° |
| 2026-04-22 16:43 | 63.75757 | -22.29148 | 6082 ft | 265 kts | 287° |
| 2026-04-22 16:43 | 63.76204 | -22.33132 | 5711 ft | 260 kts | 287° |
| 2026-04-22 16:43 | 63.76692 | -22.36892 | 5573 ft | 244 kts | 293° |
| 2026-04-22 16:44 | 63.77367 | -22.40327 | 5214 ft | 235 kts | 301° |
| 2026-04-22 16:44 | 63.78182 | -22.43441 | 4869 ft | 227 kts | 305° |
| 2026-04-22 16:44 | 63.79037 | -22.46350 | 4558 ft | 215 kts | 307° |
| 2026-04-22 16:44 | 63.79857 | -22.49072 | 4238 ft | 205 kts | 306° |
| 2026-04-22 16:45 | 63.80624 | -22.51703 | 3961 ft | 197 kts | 305° |
| 2026-04-22 16:45 | 63.81348 | -22.54272 | 3722 ft | 194 kts | 305° |
| 2026-04-22 16:45 | 63.82070 | -22.56877 | 3459 ft | 195 kts | 304° |
| 2026-04-22 16:45 | 63.82763 | -22.59402 | 3196 ft | 184 kts | 304° |
| 2026-04-22 16:46 | 63.83495 | -22.61610 | 3015 ft | 173 kts | 323° |
| 2026-04-22 16:46 | 63.84568 | -22.62562 | 2785 ft | 160 kts | 355° |
| 2026-04-22 16:46 | 63.85666 | -22.62439 | 2823 ft | 162 kts | 1° |
| 2026-04-22 16:46 | 63.86811 | -22.62276 | 2494 ft | 165 kts | 1° |
| 2026-04-22 16:47 | 63.87941 | -22.62100 | 2212 ft | 160 kts | 1° |
| 2026-04-22 16:47 | 63.89032 | -22.61919 | 2013 ft | 161 kts | 1° |
| 2026-04-22 16:47 | 63.90154 | -22.61719 | 1745 ft | 161 kts | 1° |
| 2026-04-22 16:47 | 63.91265 | -22.61401 | 1462 ft | 162 kts | 11° |
| 2026-04-22 16:48 | 63.92343 | -22.60739 | 1180 ft | 162 kts | 11° |
| 2026-04-22 16:48 | 63.93457 | -22.60474 | 885 ft | 160 kts | 356° |
| 2026-04-22 16:48 | 63.94566 | -22.60543 | 581 ft | 162 kts | 360° |
| 2026-04-22 16:48 | 63.95697 | -22.60553 | 283 ft | 162 kts | 356° |
| 2026-04-22 16:49 | 63.96796 | -22.60556 | 136 ft | 152 kts | 358° |
| 2026-04-22 16:49 | 63.97722 | -22.60557 | 163 ft | 114 kts | 359° |
| 2026-04-22 16:49 | 63.98393 | -22.60552 | 162 ft | 79 kts | 0° |
| 2026-04-22 16:49 | 63.98737 | -22.60555 | 158 ft | 26 kts | 355° |
| 2026-04-22 16:50 | 63.98862 | -22.60751 | 153 ft | 23 kts | 310° |
| 2026-04-22 16:50 | 63.98908 | -22.60861 | 152 ft | 0 kts | 315° |
| 2026-04-22 16:51 | 63.98909 | -22.60865 | 152 ft | 1 kts | 315° |
| 2026-04-22 16:51 | 63.98923 | -22.60897 | 151 ft | 4 kts | 315° |
| 2026-04-22 16:52 | 63.98959 | -22.60940 | 151 ft | 7 kts | 354° |
| 2026-04-22 16:52 | 63.99028 | -22.60949 | 150 ft | 11 kts | 358° |
| 2026-04-22 16:52 | 63.99117 | -22.60953 | 150 ft | 13 kts | 0° |
| 2026-04-22 16:52 | 63.99168 | -22.60863 | 150 ft | 10 kts | 78° |
| 2026-04-22 16:53 | 63.99172 | -22.60674 | 150 ft | 13 kts | 90° |
| 2026-04-22 16:53 | 63.99173 | -22.60451 | 150 ft | 15 kts | 89° |
| 2026-04-22 16:53 | 63.99175 | -22.60190 | 150 ft | 17 kts | 91° |
| 2026-04-22 16:53 | 63.99124 | -22.59937 | 152 ft | 18 kts | 136° |
| 2026-04-22 16:54 | 63.99031 | -22.59729 | 155 ft | 18 kts | 136° |
| 2026-04-22 16:54 | 63.98941 | -22.59522 | 159 ft | 18 kts | 135° |
| 2026-04-22 16:54 | 63.98833 | -22.59368 | 163 ft | 18 kts | 164° |
| 2026-04-22 16:54 | 63.98716 | -22.59303 | 170 ft | 16 kts | 178° |
| 2026-04-22 16:55 | 63.98609 | -22.59303 | 176 ft | 14 kts | 181° |
| 2026-04-22 16:55 | 63.98512 | -22.59304 | 180 ft | 13 kts | 179° |
| 2026-04-22 16:55 | 63.98428 | -22.59248 | 185 ft | 12 kts | 159° |
| 2026-04-22 16:55 | 63.98328 | -22.59156 | 190 ft | 18 kts | 158° |
| 2026-04-22 16:56 | 63.98198 | -22.59033 | 196 ft | 18 kts | 158° |
| 2026-04-22 16:56 | 63.98126 | -22.58960 | 197 ft | 7 kts | 147° |
| 2026-04-22 16:56 | 63.98117 | -22.58825 | 192 ft | 11 kts | 88° |
| 2026-04-22 16:56 | 63.98144 | -22.58732 | 189 ft | 5 kts | 7° |
| 2026-04-22 16:57 | 63.98186 | -22.58729 | 188 ft | 5 kts | 1° |
| 2026-04-22 16:57 | 63.98188 | -22.58729 | 187 ft | 0 kts | 1° |